Blackwell, Oklahoma
Current Conditions -  °F | °C
As of 3:15 PM on Sunday 23 Nov 2014 (Local Time) from KBKN Reporting Station
Overcast Overcast  
Wind Chill: 50°   Ceiling: 2200
Heat Index: 50°   Visibility: 10mi
Dew Point: 41°   Wind: 31mph
Humidity: 71%   Direction: 340°NNW
Pressure: 29.4"   Gusts: 38mph
Location:  36.8°N, 97.28°W
Report Text: KBKN 232115Z AUTO 34027G33KT 10SM OVC022 10/05 A2940 RMK AO2
Loading
Personal Weather Stations






























Interactive Weather Map New forecast layout! Learn more

10-Day Weather Forecast

Advertisements
Track Severe Weather on mobile